createdAt,value
2017-11-16T00:00:06.071Z,9.12
2017-11-16T00:01:06.042Z,9.13
2017-11-16T00:02:06.016Z,9.13
2017-11-16T00:03:05.986Z,9.12
2017-11-16T00:04:05.955Z,9.13
2017-11-16T00:05:05.932Z,9.13
2017-11-16T00:06:05.907Z,9.15
2017-11-16T00:07:05.878Z,9.13
2017-11-16T00:08:05.856Z,9.19
2017-11-16T00:09:05.827Z,9.19
2017-11-16T00:10:05.806Z,9.04
2017-11-16T00:11:05.764Z,9.08
2017-11-16T00:12:05.744Z,9.10
2017-11-16T00:13:05.716Z,9.08
2017-11-16T00:14:05.689Z,9.12
2017-11-16T00:15:05.661Z,9.13
2017-11-16T00:16:05.883Z,9.13
2017-11-16T00:17:05.609Z,9.15
2017-11-16T00:18:05.573Z,9.13
2017-11-16T00:19:05.553Z,9.12
2017-11-16T00:20:05.523Z,9.10
2017-11-16T00:21:05.797Z,9.13
2017-11-16T00:22:05.475Z,9.13
2017-11-16T00:23:05.439Z,9.19
2017-11-16T00:24:05.418Z,9.13
2017-11-16T00:25:05.385Z,9.15
2017-11-16T00:26:05.360Z,9.13
2017-11-16T00:27:05.332Z,9.08
2017-11-16T00:28:05.307Z,9.19
2017-11-16T00:29:05.277Z,9.16
2017-11-16T00:30:05.258Z,9.08
2017-11-16T00:31:05.222Z,9.12
2017-11-16T00:32:05.199Z,9.08
2017-11-16T00:33:05.172Z,9.13
2017-11-16T00:34:05.141Z,9.17
2017-11-16T00:35:05.111Z,9.13
2017-11-16T00:36:05.083Z,9.15
2017-11-16T00:37:05.057Z,9.12
2017-11-16T00:38:05.032Z,9.13
2017-11-16T00:39:05.262Z,9.16
2017-11-16T00:40:04.978Z,9.06
2017-11-16T00:41:04.952Z,9.16
2017-11-16T00:42:04.925Z,9.12
2017-11-16T00:43:04.894Z,9.10
2017-11-16T00:44:04.869Z,9.17
2017-11-16T00:45:05.145Z,9.12
2017-11-16T00:46:04.808Z,9.15
2017-11-16T00:47:04.791Z,9.12
2017-11-16T00:48:04.759Z,9.08
2017-11-16T00:49:04.739Z,9.16
2017-11-16T00:50:04.711Z,9.08
2017-11-16T00:51:04.682Z,9.12
2017-11-16T00:52:04.649Z,9.04
2017-11-16T00:53:04.654Z,9.08
2017-11-16T00:54:04.598Z,9.10
2017-11-16T00:55:04.563Z,9.08
2017-11-16T00:56:04.543Z,9.17
2017-11-16T00:57:04.511Z,9.16
2017-11-16T00:58:04.484Z,9.16
2017-11-16T00:59:04.459Z,9.15
2017-11-16T01:00:04.431Z,9.13
2017-11-16T01:01:04.404Z,9.12
2017-11-16T01:02:04.376Z,9.19
2017-11-16T01:03:04.358Z,9.10
2017-11-16T01:04:04.321Z,9.08
2017-11-16T01:05:04.301Z,9.16
2017-11-16T01:06:04.274Z,9.08
2017-11-16T01:07:04.536Z,9.22
2017-11-16T01:08:04.215Z,9.19
2017-11-16T01:09:04.183Z,9.19
2017-11-16T01:10:04.156Z,9.20
2017-11-16T01:11:04.133Z,9.20
2017-11-16T01:12:04.114Z,9.19
2017-11-16T01:13:04.330Z,9.16
2017-11-16T01:14:04.058Z,9.22
2017-11-16T01:15:04.024Z,9.20
2017-11-16T01:16:04.005Z,9.19
2017-11-16T01:17:03.969Z,9.24
2017-11-16T01:18:03.941Z,9.19
2017-11-16T01:19:03.913Z,9.26
2017-11-16T01:20:03.889Z,9.19
2017-11-16T01:21:03.857Z,9.19
2017-11-16T01:22:03.853Z,9.24
2017-11-16T01:23:03.798Z,9.24
2017-11-16T01:24:03.773Z,9.26
2017-11-16T01:25:03.753Z,9.23
2017-11-16T01:26:03.723Z,9.27
2017-11-16T01:27:03.695Z,9.22
2017-11-16T01:28:03.666Z,9.17
2017-11-16T01:29:03.643Z,9.27
2017-11-16T01:30:03.610Z,9.27
2017-11-16T01:31:03.580Z,9.32
2017-11-16T01:32:03.557Z,9.24
2017-11-16T01:33:03.523Z,9.30
2017-11-16T01:34:03.500Z,9.32
2017-11-16T01:35:03.482Z,9.30
2017-11-16T01:36:03.448Z,9.30
2017-11-16T01:37:03.675Z,9.31
2017-11-16T01:38:03.397Z,9.27
2017-11-16T01:39:03.374Z,9.20
2017-11-16T01:40:03.338Z,9.27
2017-11-16T01:41:03.314Z,9.34
2017-11-16T01:42:03.289Z,9.31
2017-11-16T01:43:03.507Z,9.27
2017-11-16T01:44:03.232Z,9.27
2017-11-16T01:45:03.203Z,9.31
2017-11-16T01:46:03.172Z,9.27
2017-11-16T01:47:03.143Z,9.32
2017-11-16T01:48:03.119Z,9.27
2017-11-16T01:49:03.094Z,9.31
2017-11-16T01:50:03.063Z,9.30
2017-11-16T01:51:03.039Z,9.32
2017-11-16T01:52:03.007Z,9.37
2017-11-16T01:53:02.985Z,9.31
2017-11-16T01:54:02.964Z,9.30
2017-11-16T01:55:02.934Z,9.30
2017-11-16T01:56:02.901Z,9.27
2017-11-16T01:57:02.873Z,9.32
2017-11-16T01:58:02.845Z,9.26
2017-11-16T01:59:02.820Z,9.32
2017-11-16T02:00:02.802Z,9.30
2017-11-16T02:01:02.762Z,9.32
2017-11-16T02:02:02.738Z,9.32
2017-11-16T02:03:02.711Z,9.31
2017-11-16T02:04:02.685Z,9.30
2017-11-16T02:05:02.657Z,9.31
2017-11-16T02:06:02.624Z,9.27
2017-11-16T02:07:02.600Z,9.26
2017-11-16T02:08:02.572Z,9.27
2017-11-16T02:09:02.563Z,9.24
2017-11-16T02:10:02.527Z,9.27
2017-11-16T02:11:02.520Z,9.26
2017-11-16T02:12:02.460Z,9.27
2017-11-16T02:13:02.434Z,9.20
2017-11-16T02:14:02.407Z,9.24
2017-11-16T02:15:02.389Z,9.24
2017-11-16T02:16:02.358Z,9.19
2017-11-16T02:17:02.325Z,9.17
2017-11-16T02:18:02.302Z,9.19
2017-11-16T02:19:03.240Z,9.24
2017-11-16T02:20:02.246Z,9.20
2017-11-16T02:21:02.223Z,9.20
2017-11-16T02:22:02.188Z,9.20
2017-11-16T02:23:02.169Z,9.19
2017-11-16T02:24:02.147Z,9.22
2017-11-16T02:25:02.363Z,9.17
2017-11-16T02:26:02.085Z,9.19
2017-11-16T02:27:02.051Z,9.22
2017-11-16T02:28:02.032Z,9.19
2017-11-16T02:29:02.003Z,9.23
2017-11-16T02:30:01.978Z,9.23
2017-11-16T02:31:01.943Z,9.20
2017-11-16T02:32:01.923Z,9.20
2017-11-16T02:33:01.889Z,9.26
2017-11-16T02:34:01.869Z,9.23
2017-11-16T02:35:01.841Z,9.17
2017-11-16T02:36:01.810Z,9.20
2017-11-16T02:37:01.786Z,9.22
2017-11-16T02:38:01.761Z,9.24
2017-11-16T02:39:01.731Z,9.23
2017-11-16T02:40:01.700Z,9.20
2017-11-16T02:41:01.675Z,9.20
2017-11-16T02:42:01.650Z,9.24
2017-11-16T02:43:01.919Z,9.19
2017-11-16T02:44:01.595Z,9.15
2017-11-16T02:45:01.562Z,9.17
2017-11-16T02:46:01.545Z,9.15
2017-11-16T02:47:01.517Z,9.23
2017-11-16T02:48:01.490Z,9.19
2017-11-16T02:49:01.454Z,9.17
2017-11-16T02:50:01.430Z,9.15
2017-11-16T02:51:01.405Z,9.17
2017-11-16T02:52:01.375Z,9.22
2017-11-16T02:53:01.349Z,9.19
2017-11-16T02:54:01.326Z,9.08
2017-11-16T02:55:01.293Z,9.17
2017-11-16T02:56:01.267Z,9.22
2017-11-16T02:57:01.236Z,9.16
2017-11-16T02:58:01.215Z,9.17
2017-11-16T02:59:01.186Z,9.16
2017-11-16T03:00:01.405Z,9.19
2017-11-16T03:01:01.135Z,9.10
2017-11-16T03:02:01.107Z,9.20
2017-11-16T03:03:01.078Z,9.17
2017-11-16T03:04:01.056Z,9.17
2017-11-16T03:05:01.023Z,9.13
2017-11-16T03:06:01.099Z,9.13
2017-11-16T03:07:00.974Z,9.19
2017-11-16T03:08:00.941Z,9.12
2017-11-16T03:09:00.918Z,9.15
2017-11-16T03:10:00.885Z,9.08
2017-11-16T03:11:00.855Z,9.13
2017-11-16T03:12:00.828Z,9.13
2017-11-16T03:13:00.813Z,9.10
2017-11-16T03:14:00.778Z,9.17
2017-11-16T03:15:00.752Z,9.16
2017-11-16T03:16:00.722Z,9.15
2017-11-16T03:17:00.692Z,9.12
2017-11-16T03:18:00.672Z,9.10
2017-11-16T03:19:00.641Z,9.13
2017-11-16T03:20:00.614Z,9.12
2017-11-16T03:21:00.586Z,9.12
2017-11-16T03:22:00.562Z,9.06
2017-11-16T03:23:00.535Z,9.10
2017-11-16T03:24:00.811Z,9.13
2017-11-16T03:25:00.488Z,9.13
2017-11-16T03:26:00.447Z,9.12
2017-11-16T03:27:00.426Z,9.16
2017-11-16T03:28:00.398Z,9.13
2017-11-16T03:29:00.375Z,9.13
2017-11-16T03:30:01.298Z,9.16
2017-11-16T03:31:00.317Z,9.08
2017-11-16T03:32:00.291Z,9.13
2017-11-16T03:33:00.265Z,9.13
2017-11-16T03:34:00.235Z,9.20
2017-11-16T03:35:00.201Z,9.12
2017-11-16T03:36:00.941Z,9.08
2017-11-16T03:37:00.154Z,9.15
2017-11-16T03:38:00.127Z,9.06
2017-11-16T03:39:00.097Z,9.13
2017-11-16T03:40:00.065Z,9.16
2017-11-16T03:41:00.047Z,9.17
2017-11-16T03:42:00.018Z,9.12
2017-11-16T03:42:59.983Z,9.15
2017-11-16T03:43:59.961Z,9.15
2017-11-16T03:44:59.931Z,9.13
2017-11-16T03:45:59.902Z,9.13
2017-11-16T03:46:59.879Z,9.13
2017-11-16T03:47:59.856Z,9.19
2017-11-16T03:48:59.823Z,9.13
2017-11-16T03:49:59.799Z,9.06
2017-11-16T03:50:59.772Z,9.19
2017-11-16T03:51:59.744Z,9.19
2017-11-16T03:52:59.716Z,9.10
2017-11-16T03:53:59.684Z,9.10
2017-11-16T03:54:59.664Z,9.19
2017-11-16T03:55:59.630Z,9.19
2017-11-16T03:56:59.609Z,9.12
2017-11-16T03:57:59.579Z,9.13
2017-11-16T03:58:59.548Z,9.19
2017-11-16T03:59:59.521Z,9.19
2017-11-16T04:00:59.494Z,9.20
2017-11-16T04:01:59.475Z,9.15
2017-11-16T04:02:59.442Z,9.16
2017-11-16T04:03:59.417Z,9.19
2017-11-16T04:05:00.235Z,9.22
2017-11-16T04:05:59.368Z,9.19
2017-11-16T04:06:59.345Z,9.15
2017-11-16T04:07:59.308Z,9.15
2017-11-16T04:08:59.279Z,9.23
2017-11-16T04:09:59.259Z,9.20
2017-11-16T04:10:59.477Z,9.20
2017-11-16T04:11:59.197Z,9.20
2017-11-16T04:12:59.168Z,9.17
2017-11-16T04:13:59.157Z,9.24
2017-11-16T04:14:59.114Z,9.27
2017-11-16T04:15:59.100Z,9.30
2017-11-16T04:16:59.408Z,9.32
2017-11-16T04:17:59.037Z,9.31
2017-11-16T04:18:59.009Z,9.37
2017-11-16T04:19:58.983Z,9.44
2017-11-16T04:20:58.954Z,9.48
2017-11-16T04:21:58.929Z,9.45
2017-11-16T04:22:58.894Z,9.52
2017-11-16T04:23:58.872Z,9.41
2017-11-16T04:24:58.846Z,9.49
2017-11-16T04:25:58.815Z,9.49
2017-11-16T04:26:58.793Z,9.49
2017-11-16T04:27:58.764Z,9.49
2017-11-16T04:28:59.030Z,9.48
2017-11-16T04:29:58.702Z,9.49
2017-11-16T04:30:58.678Z,9.41
2017-11-16T04:31:58.653Z,9.45
2017-11-16T04:32:58.622Z,9.44
2017-11-16T04:33:59.000Z,9.42
2017-11-16T04:34:58.572Z,9.37
2017-11-16T04:35:58.555Z,9.38
2017-11-16T04:36:58.519Z,9.40
2017-11-16T04:37:58.768Z,9.37
2017-11-16T04:38:58.481Z,9.45
2017-11-16T04:39:58.433Z,9.44
2017-11-16T04:40:58.405Z,9.40
2017-11-16T04:41:58.403Z,9.40
2017-11-16T04:42:58.352Z,9.40
2017-11-16T04:43:58.322Z,9.42
2017-11-16T04:44:58.299Z,9.37
2017-11-16T04:45:58.267Z,9.41
2017-11-16T04:46:58.242Z,9.38
2017-11-16T04:47:58.215Z,9.34
2017-11-16T04:48:58.188Z,9.35
2017-11-16T04:49:58.171Z,9.41
2017-11-16T04:50:58.136Z,9.35
2017-11-16T04:51:58.352Z,9.34
2017-11-16T04:52:58.079Z,9.32
2017-11-16T04:53:58.054Z,9.32
2017-11-16T04:54:58.023Z,9.31
2017-11-16T04:55:57.995Z,9.30
2017-11-16T04:56:57.965Z,9.27
2017-11-16T04:57:58.246Z,9.27
2017-11-16T04:58:57.917Z,9.22
2017-11-16T04:59:57.883Z,9.22
2017-11-16T05:00:57.862Z,9.23
2017-11-16T05:01:57.828Z,9.22
2017-11-16T05:02:57.806Z,9.24
2017-11-16T05:03:58.084Z,9.35
2017-11-16T05:04:57.749Z,9.34
2017-11-16T05:05:57.725Z,9.27
2017-11-16T05:06:57.698Z,9.27
2017-11-16T05:07:57.665Z,9.27
2017-11-16T05:08:57.643Z,9.31
2017-11-16T05:09:57.610Z,9.30
2017-11-16T05:10:57.590Z,9.26
2017-11-16T05:11:57.564Z,9.23
2017-11-16T05:12:57.533Z,9.23
2017-11-16T05:13:57.505Z,9.19
2017-11-16T05:14:57.475Z,9.16
2017-11-16T05:15:57.449Z,9.23
2017-11-16T05:16:57.425Z,9.12
2017-11-16T05:17:57.394Z,9.19
2017-11-16T05:18:57.363Z,9.06
2017-11-16T05:19:57.592Z,9.08
2017-11-16T05:20:57.316Z,9.10
2017-11-16T05:21:57.282Z,9.00
2017-11-16T05:22:57.264Z,8.96
2017-11-16T05:23:57.231Z,8.97
2017-11-16T05:24:57.202Z,9.03
2017-11-16T05:25:57.477Z,9.03
2017-11-16T05:26:57.146Z,9.03
2017-11-16T05:27:57.119Z,8.97
2017-11-16T05:28:57.091Z,8.93
2017-11-16T05:29:57.069Z,9.00
2017-11-16T05:30:57.048Z,8.94
2017-11-16T05:31:57.010Z,8.93
2017-11-16T05:32:56.988Z,8.93
2017-11-16T05:33:56.955Z,8.94
2017-11-16T05:34:56.931Z,8.93
2017-11-16T05:35:56.900Z,8.94
2017-11-16T05:36:56.869Z,8.96
2017-11-16T05:37:57.143Z,8.96
2017-11-16T05:38:56.821Z,8.94
2017-11-16T05:39:56.787Z,9.01
2017-11-16T05:40:56.767Z,8.89
2017-11-16T05:41:56.742Z,8.97
2017-11-16T05:42:56.710Z,8.89
2017-11-16T05:43:56.683Z,8.94
2017-11-16T05:44:56.653Z,9.01
2017-11-16T05:45:56.625Z,8.97
2017-11-16T05:46:56.599Z,8.97
2017-11-16T05:47:56.567Z,8.96
2017-11-16T05:48:56.544Z,8.97
2017-11-16T05:49:56.540Z,8.97
2017-11-16T05:50:56.485Z,8.97
2017-11-16T05:51:56.464Z,8.96
2017-11-16T05:52:56.433Z,8.97
2017-11-16T05:53:56.408Z,8.85
2017-11-16T05:54:56.373Z,8.85
2017-11-16T05:55:56.353Z,8.86
2017-11-16T05:56:56.330Z,8.89
2017-11-16T05:57:56.298Z,8.80
2017-11-16T05:58:56.269Z,8.93
2017-11-16T05:59:56.245Z,8.94
2017-11-16T06:00:56.207Z,8.89
2017-11-16T06:01:56.182Z,8.75
2017-11-16T06:02:56.160Z,8.80
2017-11-16T06:03:56.127Z,8.80
2017-11-16T06:04:56.098Z,8.78
2017-11-16T06:05:56.074Z,8.80
2017-11-16T06:06:56.047Z,8.88
2017-11-16T06:07:56.015Z,8.78
2017-11-16T06:08:55.992Z,8.86
2017-11-16T06:09:55.964Z,8.85
2017-11-16T06:10:55.932Z,8.80
2017-11-16T06:11:55.909Z,8.79
2017-11-16T06:12:55.878Z,8.86
2017-11-16T06:13:56.102Z,8.82
2017-11-16T06:14:55.824Z,8.78
2017-11-16T06:15:55.800Z,8.85
2017-11-16T06:16:55.774Z,8.83
2017-11-16T06:17:55.743Z,8.89
2017-11-16T06:18:55.721Z,8.86
2017-11-16T06:19:55.689Z,8.83
2017-11-16T06:20:55.663Z,8.79
2017-11-16T06:21:55.633Z,8.85
2017-11-16T06:22:55.607Z,8.80
2017-11-16T06:23:55.588Z,8.79
2017-11-16T06:24:55.554Z,8.86
2017-11-16T06:25:55.524Z,8.86
2017-11-16T06:26:55.503Z,8.83
2017-11-16T06:27:55.467Z,8.82
2017-11-16T06:28:55.440Z,8.83
2017-11-16T06:29:55.426Z,8.91
2017-11-16T06:30:55.397Z,8.76
2017-11-16T06:31:55.358Z,8.78
2017-11-16T06:32:55.334Z,8.80
2017-11-16T06:33:55.309Z,8.80
2017-11-16T06:34:55.283Z,8.91
2017-11-16T06:35:55.253Z,8.88
2017-11-16T06:36:55.218Z,8.86
2017-11-16T06:37:55.445Z,8.83
2017-11-16T06:38:55.166Z,8.78
2017-11-16T06:39:55.135Z,8.83
2017-11-16T06:40:55.117Z,8.80
2017-11-16T06:41:55.079Z,8.78
2017-11-16T06:42:55.054Z,8.86
2017-11-16T06:43:55.290Z,8.76
2017-11-16T06:44:55.002Z,8.85
2017-11-16T06:45:54.976Z,8.82
2017-11-16T06:46:54.945Z,8.85
2017-11-16T06:47:54.920Z,8.80
2017-11-16T06:48:54.887Z,8.79
2017-11-16T06:49:55.168Z,8.75
2017-11-16T06:50:54.842Z,8.78
2017-11-16T06:51:54.813Z,8.79
2017-11-16T06:52:54.786Z,8.86
2017-11-16T06:53:54.756Z,8.78
2017-11-16T06:54:54.730Z,8.79
2017-11-16T06:55:54.801Z,8.83
2017-11-16T06:56:54.674Z,8.78
2017-11-16T06:57:54.639Z,8.76
2017-11-16T06:58:54.612Z,8.80
2017-11-16T06:59:54.584Z,8.79
2017-11-16T07:00:54.563Z,8.76
2017-11-16T07:01:54.528Z,8.80
2017-11-16T07:02:54.507Z,8.75
2017-11-16T07:03:54.485Z,8.80
2017-11-16T07:04:54.450Z,8.80
2017-11-16T07:05:54.426Z,8.79
2017-11-16T07:06:54.395Z,8.75
2017-11-16T07:07:54.370Z,8.82
2017-11-16T07:08:54.343Z,8.80
2017-11-16T07:09:54.322Z,8.79
2017-11-16T07:10:54.286Z,8.78
2017-11-16T07:11:54.261Z,8.73
2017-11-16T07:12:54.482Z,8.79
2017-11-16T07:13:54.205Z,8.71
2017-11-16T07:14:54.175Z,8.80
2017-11-16T07:15:54.153Z,8.82
2017-11-16T07:16:54.124Z,8.83
2017-11-16T07:17:54.096Z,8.78
2017-11-16T07:18:54.067Z,8.85
2017-11-16T07:19:54.038Z,8.78
2017-11-16T07:20:54.006Z,8.78
2017-11-16T07:21:53.984Z,8.86
2017-11-16T07:22:53.952Z,8.86
2017-11-16T07:23:53.935Z,8.83
2017-11-16T07:24:54.203Z,8.85
2017-11-16T07:25:53.869Z,8.82
2017-11-16T07:26:53.843Z,8.83
2017-11-16T07:27:53.817Z,8.83
2017-11-16T07:28:53.788Z,8.85
2017-11-16T07:29:53.764Z,8.86
2017-11-16T07:30:53.739Z,8.80
2017-11-16T07:31:53.728Z,8.82
2017-11-16T07:32:53.680Z,8.78
2017-11-16T07:33:53.657Z,8.89
2017-11-16T07:34:53.635Z,8.91
2017-11-16T07:35:53.598Z,8.89
2017-11-16T07:36:53.589Z,9.00
2017-11-16T07:37:53.541Z,8.97
2017-11-16T07:38:53.519Z,9.01
2017-11-16T07:39:53.487Z,9.03
2017-11-16T07:40:53.465Z,9.03
2017-11-16T07:41:53.433Z,8.96
2017-11-16T07:42:53.661Z,8.98
2017-11-16T07:43:53.384Z,9.10
2017-11-16T07:44:53.357Z,9.01
2017-11-16T07:45:53.328Z,9.01
2017-11-16T07:46:53.298Z,9.01
2017-11-16T07:47:53.269Z,9.00
2017-11-16T07:48:53.245Z,8.97
2017-11-16T07:49:53.222Z,8.98
2017-11-16T07:50:53.209Z,8.98
2017-11-16T07:51:53.164Z,9.04
2017-11-16T07:52:53.129Z,9.01
2017-11-16T07:53:53.111Z,9.03
2017-11-16T07:54:53.075Z,9.12
2017-11-16T07:55:53.051Z,9.15
2017-11-16T07:56:53.024Z,9.12
2017-11-16T07:57:52.999Z,9.15
2017-11-16T07:58:52.968Z,9.10
2017-11-16T07:59:52.940Z,9.15
2017-11-16T08:00:52.921Z,9.10
2017-11-16T08:01:52.895Z,9.08
2017-11-16T08:02:52.863Z,9.12
2017-11-16T08:03:52.829Z,9.08
2017-11-16T08:04:52.805Z,9.15
2017-11-16T08:05:52.780Z,9.17
2017-11-16T08:06:52.753Z,9.10
2017-11-16T08:07:52.721Z,9.13
2017-11-16T08:08:52.694Z,9.10
2017-11-16T08:09:52.674Z,9.16
2017-11-16T08:10:52.642Z,9.16
2017-11-16T08:11:52.608Z,9.12
2017-11-16T08:12:52.585Z,9.13
2017-11-16T08:13:52.558Z,9.20
2017-11-16T08:14:52.538Z,9.16
2017-11-16T08:15:52.505Z,9.19
2017-11-16T08:16:52.476Z,9.20
2017-11-16T08:17:52.456Z,9.17
2017-11-16T08:18:52.421Z,9.17
2017-11-16T08:19:52.395Z,9.16
2017-11-16T08:20:52.365Z,9.15
2017-11-16T08:21:52.345Z,9.19
2017-11-16T08:22:52.316Z,9.15
2017-11-16T08:23:52.292Z,9.17
2017-11-16T08:24:52.302Z,9.19
2017-11-16T08:25:52.234Z,9.23
2017-11-16T08:26:52.211Z,9.23
2017-11-16T08:27:52.177Z,9.19
2017-11-16T08:28:52.159Z,9.17
2017-11-16T08:29:52.119Z,9.23
2017-11-16T08:30:52.105Z,9.20
2017-11-16T08:31:52.069Z,9.23
2017-11-16T08:32:52.046Z,9.16
2017-11-16T08:33:52.019Z,9.19
2017-11-16T08:34:51.988Z,9.22
2017-11-16T08:35:51.961Z,9.19
2017-11-16T08:36:51.935Z,9.12
2017-11-16T08:37:51.910Z,9.16
2017-11-16T08:38:51.882Z,9.13
2017-11-16T08:39:51.852Z,9.16
2017-11-16T08:40:51.822Z,9.16
2017-11-16T08:41:51.817Z,9.20
2017-11-16T08:42:51.779Z,9.17
2017-11-16T08:43:51.743Z,9.19
2017-11-16T08:44:51.716Z,9.24
2017-11-16T08:45:51.704Z,9.19
2017-11-16T08:46:51.663Z,9.17
2017-11-16T08:47:51.643Z,9.16
2017-11-16T08:48:51.608Z,9.22
2017-11-16T08:49:51.591Z,9.20
2017-11-16T08:50:51.561Z,9.17
2017-11-16T08:51:51.531Z,9.19
2017-11-16T08:52:51.749Z,9.20
2017-11-16T08:53:51.473Z,9.17
2017-11-16T08:54:51.448Z,9.22
2017-11-16T08:55:51.438Z,9.15
2017-11-16T08:56:51.395Z,9.16
2017-11-16T08:57:51.375Z,9.19
2017-11-16T08:58:51.436Z,9.13
2017-11-16T08:59:51.321Z,9.13
2017-11-16T09:00:51.280Z,9.15
2017-11-16T09:01:51.258Z,9.15
2017-11-16T09:02:51.232Z,9.19
2017-11-16T09:03:51.206Z,9.19
2017-11-16T09:04:51.180Z,9.12
2017-11-16T09:05:51.153Z,9.20
2017-11-16T09:06:51.124Z,9.10
2017-11-16T09:07:51.100Z,9.19
2017-11-16T09:08:51.067Z,9.22
2017-11-16T09:09:51.048Z,9.16
2017-11-16T09:10:51.011Z,9.20
2017-11-16T09:11:50.994Z,9.24
2017-11-16T09:12:50.963Z,9.22
2017-11-16T09:13:50.941Z,9.20
2017-11-16T09:14:50.908Z,9.16
2017-11-16T09:15:50.877Z,9.20
2017-11-16T09:16:50.857Z,9.22
2017-11-16T09:17:50.825Z,9.23
2017-11-16T09:18:50.798Z,9.23
2017-11-16T09:19:50.810Z,9.27
2017-11-16T09:20:50.746Z,9.24
2017-11-16T09:21:50.712Z,9.30
2017-11-16T09:22:50.692Z,9.31
2017-11-16T09:23:50.667Z,9.30
2017-11-16T09:24:50.643Z,9.27
2017-11-16T09:25:50.604Z,9.30
2017-11-16T09:26:50.580Z,9.30
2017-11-16T09:27:50.555Z,9.26
2017-11-16T09:28:50.774Z,9.32
2017-11-16T09:29:50.498Z,9.32
2017-11-16T09:30:50.474Z,9.34
2017-11-16T09:31:50.460Z,9.41
2017-11-16T09:32:50.415Z,9.40
2017-11-16T09:33:50.407Z,9.31
2017-11-16T09:34:50.371Z,9.32
2017-11-16T09:35:50.354Z,9.35
2017-11-16T09:36:50.307Z,9.38
2017-11-16T09:37:50.281Z,9.38
2017-11-16T09:38:50.260Z,9.37
2017-11-16T09:39:50.236Z,9.37
2017-11-16T09:40:50.204Z,9.42
2017-11-16T09:41:50.178Z,9.44
2017-11-16T09:42:50.150Z,9.37
2017-11-16T09:43:50.129Z,9.38
2017-11-16T09:44:50.100Z,9.37
2017-11-16T09:45:50.072Z,9.48
2017-11-16T09:46:50.392Z,9.49
2017-11-16T09:47:50.025Z,9.44
2017-11-16T09:48:49.989Z,9.50
2017-11-16T09:49:49.968Z,9.52
2017-11-16T09:50:49.933Z,9.53
2017-11-16T09:51:49.912Z,9.45
2017-11-16T09:52:49.981Z,9.42
2017-11-16T09:53:49.868Z,9.49
2017-11-16T09:54:49.822Z,9.53
2017-11-16T09:55:49.801Z,9.55
2017-11-16T09:56:49.772Z,9.53
2017-11-16T09:57:49.748Z,9.56
2017-11-16T09:58:49.730Z,9.52
2017-11-16T09:59:49.692Z,9.58
2017-11-16T10:00:49.663Z,9.67
2017-11-16T10:01:49.643Z,9.63
2017-11-16T10:02:49.634Z,9.65
2017-11-16T10:03:49.892Z,9.67
2017-11-16T10:04:49.561Z,9.60
2017-11-16T10:05:49.533Z,9.65
2017-11-16T10:06:49.503Z,9.62
2017-11-16T10:07:49.478Z,9.68
2017-11-16T10:08:49.449Z,9.68
2017-11-16T10:09:49.425Z,9.71
2017-11-16T10:10:49.400Z,9.71
2017-11-16T10:11:49.373Z,9.65
2017-11-16T10:12:49.341Z,9.70
2017-11-16T10:13:49.319Z,9.68
2017-11-16T10:14:49.298Z,9.65
2017-11-16T10:15:49.267Z,9.71
2017-11-16T10:16:49.233Z,9.67
2017-11-16T10:17:49.219Z,9.68
2017-11-16T10:18:49.216Z,9.73
2017-11-16T10:19:49.153Z,9.73
2017-11-16T10:20:49.157Z,9.74
2017-11-16T10:21:49.109Z,9.70
2017-11-16T10:22:49.074Z,9.71
2017-11-16T10:23:49.050Z,9.73
2017-11-16T10:24:49.027Z,9.70
2017-11-16T10:25:48.999Z,9.77
2017-11-16T10:26:48.967Z,9.74
2017-11-16T10:27:48.945Z,9.75
2017-11-16T10:28:48.920Z,9.63
2017-11-16T10:29:48.886Z,9.71
2017-11-16T10:30:48.872Z,9.73
2017-11-16T10:31:48.836Z,9.83
2017-11-16T10:32:49.072Z,9.68
2017-11-16T10:33:48.785Z,9.75
2017-11-16T10:34:48.760Z,9.80
2017-11-16T10:35:48.727Z,9.70
2017-11-16T10:36:48.699Z,9.70
2017-11-16T10:37:48.675Z,9.73
2017-11-16T10:38:48.748Z,9.71
2017-11-16T10:39:48.621Z,9.86
2017-11-16T10:40:48.595Z,9.78
2017-11-16T10:41:48.563Z,9.86
2017-11-16T10:42:48.542Z,9.95
2017-11-16T10:43:48.513Z,9.93
2017-11-16T10:44:48.492Z,10.02
2017-11-16T10:45:48.460Z,10.04
2017-11-16T10:46:48.433Z,10.01
2017-11-16T10:47:48.427Z,10.01
2017-11-16T10:48:48.380Z,10.10
2017-11-16T10:49:48.357Z,10.10
2017-11-16T10:50:48.333Z,10.10
2017-11-16T10:51:48.298Z,10.06
2017-11-16T10:52:48.272Z,9.99
2017-11-16T10:53:48.248Z,9.96
2017-11-16T10:54:48.231Z,10.14
2017-11-16T10:55:48.199Z,10.09
2017-11-16T10:56:48.167Z,10.01
2017-11-16T10:57:48.145Z,10.04
2017-11-16T10:58:48.123Z,10.06
2017-11-16T10:59:48.095Z,10.01
2017-11-16T11:00:48.069Z,9.91
2017-11-16T11:01:48.040Z,9.93
2017-11-16T11:02:48.019Z,9.96
2017-11-16T11:03:47.985Z,9.99
2017-11-16T11:04:47.955Z,10.01
2017-11-16T11:05:47.941Z,10.01
2017-11-16T11:06:47.903Z,10.07
2017-11-16T11:07:48.231Z,10.04
2017-11-16T11:08:47.882Z,10.09
2017-11-16T11:09:47.828Z,10.09
2017-11-16T11:10:47.809Z,10.17
2017-11-16T11:11:47.776Z,10.11
2017-11-16T11:12:47.754Z,10.07
2017-11-16T11:13:47.974Z,10.01
2017-11-16T11:14:47.698Z,9.89
2017-11-16T11:15:47.671Z,9.86
2017-11-16T11:16:47.662Z,9.93
2017-11-16T11:17:47.623Z,9.91
2017-11-16T11:18:47.590Z,9.88
2017-11-16T11:19:47.566Z,9.88
2017-11-16T11:20:47.551Z,9.80
2017-11-16T11:21:47.525Z,9.80
2017-11-16T11:22:47.495Z,9.71
2017-11-16T11:23:47.469Z,9.80
2017-11-16T11:24:47.437Z,9.74
2017-11-16T11:25:47.407Z,9.77
2017-11-16T11:26:47.389Z,9.73
2017-11-16T11:27:47.354Z,9.73
2017-11-16T11:28:47.328Z,9.71
2017-11-16T11:29:47.303Z,9.70
2017-11-16T11:30:47.287Z,9.80
2017-11-16T11:31:47.252Z,9.68
2017-11-16T11:32:47.229Z,9.70
2017-11-16T11:33:47.194Z,9.74
2017-11-16T11:34:47.167Z,9.75
2017-11-16T11:35:47.145Z,9.78
2017-11-16T11:36:47.113Z,9.70
2017-11-16T11:37:47.489Z,9.75
2017-11-16T11:38:47.063Z,9.71
2017-11-16T11:39:47.038Z,9.70
2017-11-16T11:40:47.012Z,9.70
2017-11-16T11:41:46.979Z,9.71
2017-11-16T11:42:46.956Z,9.67
2017-11-16T11:43:46.929Z,9.65
2017-11-16T11:44:46.904Z,9.58
2017-11-16T11:45:46.874Z,9.60
2017-11-16T11:46:46.850Z,9.59
2017-11-16T11:47:46.829Z,9.56
2017-11-16T11:48:46.801Z,9.59
2017-11-16T11:49:46.774Z,9.53
2017-11-16T11:50:46.741Z,9.56
2017-11-16T11:51:46.713Z,9.52
2017-11-16T11:52:46.692Z,9.56
2017-11-16T11:53:46.667Z,9.58
2017-11-16T11:54:46.636Z,9.58
2017-11-16T11:55:46.607Z,9.56
2017-11-16T11:56:46.577Z,9.58
2017-11-16T11:57:46.552Z,9.53
2017-11-16T11:58:46.533Z,9.53
2017-11-16T11:59:46.505Z,9.59
2017-11-16T12:00:46.475Z,9.56
2017-11-16T12:01:46.444Z,9.48
2017-11-16T12:02:46.422Z,9.58
2017-11-16T12:03:46.392Z,9.48
2017-11-16T12:04:46.372Z,9.44
2017-11-16T12:05:46.337Z,9.48
2017-11-16T12:06:46.417Z,9.49
2017-11-16T12:07:46.288Z,9.53
2017-11-16T12:08:46.258Z,9.48
2017-11-16T12:09:46.237Z,9.50
2017-11-16T12:10:46.200Z,9.42
2017-11-16T12:11:46.176Z,9.45
2017-11-16T12:12:46.396Z,9.48
2017-11-16T12:13:46.122Z,9.38
2017-11-16T12:14:46.090Z,9.48
2017-11-16T12:15:46.063Z,9.45
2017-11-16T12:16:46.044Z,9.41
2017-11-16T12:17:46.013Z,9.38
2017-11-16T12:18:46.794Z,9.38
2017-11-16T12:19:45.954Z,9.38
2017-11-16T12:20:45.933Z,9.44
2017-11-16T12:21:45.905Z,9.52
2017-11-16T12:22:45.888Z,9.38
2017-11-16T12:23:45.858Z,9.38
2017-11-16T12:24:45.822Z,9.44
2017-11-16T12:25:45.794Z,9.31
2017-11-16T12:26:45.773Z,9.42
2017-11-16T12:27:45.745Z,9.38
2017-11-16T12:28:45.713Z,9.32
2017-11-16T12:29:45.691Z,9.35
2017-11-16T12:30:45.661Z,9.34
2017-11-16T12:31:45.640Z,9.32
2017-11-16T12:32:45.611Z,9.27
2017-11-16T12:33:45.608Z,9.34
2017-11-16T12:34:45.548Z,9.32
2017-11-16T12:35:45.531Z,9.34
2017-11-16T12:36:45.501Z,9.27
2017-11-16T12:37:45.843Z,9.30
2017-11-16T12:38:45.437Z,9.32
2017-11-16T12:39:45.415Z,9.31
2017-11-16T12:40:45.393Z,9.27
2017-11-16T12:41:45.354Z,9.31
2017-11-16T12:42:45.335Z,9.32
2017-11-16T12:43:45.308Z,9.30
2017-11-16T12:44:45.272Z,9.32
2017-11-16T12:45:45.251Z,9.30
2017-11-16T12:46:45.231Z,9.30
2017-11-16T12:47:45.189Z,9.30
2017-11-16T12:48:45.264Z,9.22
2017-11-16T12:49:45.138Z,9.17
2017-11-16T12:50:45.119Z,9.19
2017-11-16T12:51:45.085Z,9.27
2017-11-16T12:52:45.064Z,9.17
2017-11-16T12:53:45.034Z,9.23
2017-11-16T12:54:45.353Z,9.19
2017-11-16T12:55:44.974Z,9.24
2017-11-16T12:56:44.947Z,9.19
2017-11-16T12:57:44.928Z,9.15
2017-11-16T12:58:44.895Z,9.22
2017-11-16T12:59:44.866Z,9.12
2017-11-16T13:00:44.846Z,9.19
2017-11-16T13:01:44.830Z,9.15
2017-11-16T13:02:44.782Z,9.17
2017-11-16T13:03:44.752Z,9.15
2017-11-16T13:04:44.736Z,9.13
2017-11-16T13:05:44.701Z,9.19
2017-11-16T13:06:44.777Z,9.10
2017-11-16T13:07:44.639Z,9.10
2017-11-16T13:08:44.611Z,9.17
2017-11-16T13:09:44.584Z,9.13
2017-11-16T13:10:44.558Z,9.00
2017-11-16T13:11:44.533Z,9.01
2017-11-16T13:12:44.857Z,9.00
2017-11-16T13:13:44.481Z,8.98
2017-11-16T13:14:44.464Z,9.08
2017-11-16T13:15:44.418Z,9.00
2017-11-16T13:16:44.407Z,9.00